Time;durP1;ratioP1;P1;durP2;ratioP2;P2;SDS_P1;SDS_P2;PMS_P1;PMS_P2;Temp;Humidity;BMP_temperature;BMP_pressure;BME280_temperature;BME280_humidity;BME280_pressure;Samples;Min_cycle;Max_cycle;Signal;HPM_P1;HPM_P2
2022/03/11 00:01:14;;;;;;;;;;;;;;;-5.26;52.63;102680.59;4985674;28;19972;-78
2022/03/11 00:03:39;;;;;;;;;;;;;;;-5.25;53.03;102682.28;4979120;28;19980;-78
2022/03/11 00:06:06;;;;;;;;;;;;;;;-5.24;52.83;102678.63;4978051;28;19975;-78
2022/03/11 00:08:32;;;;;;;;;;;;;;;-5.18;52.92;102675.47;4981666;28;19936;-78
2022/03/11 00:10:57;;;;;;;;;;;;;;;-5.14;53.79;102661.81;4972878;28;19926;-78
2022/03/11 00:13:23;;;;;;;;;;;;;;;-5.10;53.57;102657.91;4987392;28;19932;-77
2022/03/11 00:15:49;;;;;;;;;;;;;;;-5.09;54.69;102648.88;4983286;28;19926;-77
2022/03/11 00:18:14;;;;;;;;;;;;;;;-5.10;55.09;102649.88;4981863;28;19996;-77
2022/03/11 00:20:40;;;;;;;;;;;;;;;-5.08;55.71;102646.09;4985303;28;20028;-78
2022/03/11 00:23:05;;;;;;;;;;;;;;;-4.98;56.60;102649.69;4980361;28;20016;-78
2022/03/11 00:25:31;;;;;;;;;;;;;;;-4.97;56.38;102637.16;4979893;28;19926;-78
2022/03/11 00:27:59;;;;;;;;;;;;;;;-4.97;56.78;102638.00;4978750;28;19927;-78
2022/03/11 00:30:26;;;;;;;;;;;;;;;-4.94;56.29;102626.19;4996021;28;19933;-77
2022/03/11 00:32:51;;;;;;;;;;;;;;;-4.89;57.64;102643.53;4986282;28;19953;-79
2022/03/11 00:35:16;;;;;;;;;;;;;;;-4.81;57.88;102637.53;4974879;28;19925;-79
2022/03/11 00:37:42;;;;;;;;;;;;;;;-4.75;57.97;102646.88;4982232;28;19927;-79
2022/03/11 00:40:08;;;;;;;;;;;;;;;-4.73;58.88;102642.22;4979618;28;19930;-79
2022/03/11 00:42:34;;;;;;;;;;;;;;;-4.67;58.53;102649.75;4993521;28;19933;-78
2022/03/11 00:45:00;;;;;;;;;;;;;;;-4.63;59.13;102643.13;4980160;28;20617;-79
2022/03/11 00:47:26;;;;;;;;;;;;;;;-4.57;58.77;102632.72;4981837;28;19934;-79
2022/03/11 00:49:52;;;;;;;;;;;;;;;-4.51;59.87;102635.84;4985079;28;19926;-78
2022/03/11 00:52:17;;;;;;;;;;;;;;;-4.45;59.71;102629.97;4979179;28;19926;-79
2022/03/11 00:54:43;;;;;;;;;;;;;;;-4.39;60.01;102632.09;4979074;28;20054;-78
2022/03/11 00:57:08;;;;;;;;;;;;;;;-4.33;60.15;102631.59;4980480;28;19940;-77
2022/03/11 00:59:33;;;;;;;;;;;;;;;-4.29;61.30;102627.66;4980419;28;19952;-78
2022/03/11 01:01:59;;;;;;;;;;;;;;;-4.20;61.40;102626.81;4981974;28;19932;-78
2022/03/11 01:04:25;;;;;;;;;;;;;;;-4.12;61.19;102616.28;4980008;28;19925;-78
2022/03/11 01:06:50;;;;;;;;;;;;;;;-4.14;61.66;102602.16;4984434;28;19932;-78
2022/03/11 01:09:15;;;;;;;;;;;;;;;-4.15;61.50;102592.44;4981084;28;19926;-77
2022/03/11 01:11:41;;;;;;;;;;;;;;;-4.14;61.81;102587.91;4986848;28;19929;-78
2022/03/11 01:14:07;;;;;;;;;;;;;;;-4.10;61.17;102584.81;4974932;28;20273;-77
2022/03/11 01:16:32;;;;;;;;;;;;;;;-4.08;61.22;102588.22;4984162;28;19961;-77
2022/03/11 01:18:58;;;;;;;;;;;;;;;-4.06;62.66;102586.22;4997261;28;20754;-78
2022/03/11 01:21:23;;;;;;;;;;;;;;;-4.07;62.20;102581.84;4997786;28;19977;-77
2022/03/11 01:23:49;;;;;;;;;;;;;;;-4.09;62.60;102575.78;4997605;28;19929;-78
2022/03/11 01:26:16;;;;;;;;;;;;;;;-4.09;62.76;102573.09;4985288;28;20420;-80
2022/03/11 01:28:42;;;;;;;;;;;;;;;-4.02;62.38;102562.66;4983436;28;20423;-79
2022/03/11 01:31:14;;;;;;;;;;;;;;;-3.98;62.85;102572.16;4999247;28;19965;-79
2022/03/11 01:33:40;;;;;;;;;;;;;;;-3.96;62.71;102576.38;4986185;28;19964;-79
2022/03/11 01:36:08;;;;;;;;;;;;;;;-3.88;62.57;102566.78;4980140;28;19930;-79
2022/03/11 01:38:34;;;;;;;;;;;;;;;-3.88;62.35;102567.63;4977433;28;19965;-79
2022/03/11 01:40:59;;;;;;;;;;;;;;;-3.82;62.37;102563.53;4993936;28;19991;-79
2022/03/11 01:43:29;;;;;;;;;;;;;;;-3.76;62.44;102566.53;4985502;28;19925;-79
2022/03/11 01:45:55;;;;;;;;;;;;;;;-3.77;62.45;102555.94;4977901;28;19957;-79
2022/03/11 01:48:21;;;;;;;;;;;;;;;-3.70;62.27;102559.75;4982300;28;19930;-79
2022/03/11 01:50:46;;;;;;;;;;;;;;;-3.74;63.06;102563.69;4980251;28;19996;-79
2022/03/11 01:53:12;;;;;;;;;;;;;;;-3.68;62.22;102547.88;4979074;28;19926;-78
2022/03/11 01:55:40;;;;;;;;;;;;;;;-3.66;63.09;102547.72;4976079;28;20602;-78
2022/03/11 01:58:06;;;;;;;;;;;;;;;-3.71;63.89;102547.31;4980847;28;20017;-78
2022/03/11 02:00:34;;;;;;;;;;;;;;;-3.85;64.68;102539.69;4980414;28;19926;-77
2022/03/11 02:03:00;;;;;;;;;;;;;;;-3.89;65.52;102543.63;4980551;28;19926;-77
2022/03/11 02:05:26;;;;;;;;;;;;;;;-3.87;65.03;102539.81;4982631;28;19925;-79
2022/03/11 02:07:51;;;;;;;;;;;;;;;-3.82;65.86;102536.72;4992224;28;19960;-80
2022/03/11 02:10:17;;;;;;;;;;;;;;;-3.82;66.34;102545.59;4991825;28;19926;-77
2022/03/11 02:12:42;;;;;;;;;;;;;;;-3.79;66.82;102539.16;4978349;28;19926;-78
2022/03/11 02:15:09;;;;;;;;;;;;;;;-3.78;66.22;102530.94;4983936;28;19940;-78
2022/03/11 02:17:34;;;;;;;;;;;;;;;-3.76;66.72;102528.13;4983712;28;19926;-78
2022/03/11 02:20:00;;;;;;;;;;;;;;;-3.70;66.96;102528.41;4983401;28;19929;-78
2022/03/11 02:22:26;;;;;;;;;;;;;;;-3.69;67.22;102523.88;4977160;28;20012;-79
2022/03/11 02:24:54;;;;;;;;;;;;;;;-3.71;67.83;102525.84;4980603;28;19972;-79
2022/03/11 02:27:19;;;;;;;;;;;;;;;-3.70;68.41;102517.66;4981072;28;19937;-79
2022/03/11 02:29:44;;;;;;;;;;;;;;;-3.67;67.98;102521.91;4992920;28;19926;-79
2022/03/11 02:32:10;;;;;;;;;;;;;;;-3.65;67.88;102509.19;4981015;28;20032;-79
2022/03/11 02:34:38;;;;;;;;;;;;;;;-3.58;68.47;102515.69;4981948;28;19937;-78
2022/03/11 02:37:04;;;;;;;;;;;;;;;-3.53;68.83;102508.06;4981538;28;20438;-79
2022/03/11 02:39:30;;;;;;;;;;;;;;;-3.51;69.09;102506.06;4993725;28;19925;-79
2022/03/11 02:41:55;;;;;;;;;;;;;;;-3.53;68.73;102504.53;4978472;28;20335;-79
2022/03/11 02:44:22;;;;;;;;;;;;;;;-3.54;68.70;102503.69;4984528;28;20281;-79
2022/03/11 02:46:48;;;;;;;;;;;;;;;-3.46;69.37;102501.13;4977856;28;19937;-78
2022/03/11 02:49:13;;;;;;;;;;;;;;;-3.42;69.10;102499.00;4983028;28;19925;-79
2022/03/11 02:51:39;;;;;;;;;;;;;;;-3.42;69.42;102505.22;4977625;28;19930;-79
2022/03/11 02:54:04;;;;;;;;;;;;;;;-3.45;69.91;102510.88;4982444;28;19937;-79
2022/03/11 02:56:30;;;;;;;;;;;;;;;-3.50;69.28;102504.22;4985219;28;19929;-79
2022/03/11 02:58:55;;;;;;;;;;;;;;;-3.53;70.15;102497.31;4978119;28;20026;-79
2022/03/11 03:01:21;;;;;;;;;;;;;;;-3.52;70.01;102504.38;4981109;28;19926;-79
2022/03/11 03:03:46;;;;;;;;;;;;;;;-3.50;69.51;102494.34;4982205;28;20093;-78
2022/03/11 03:06:12;;;;;;;;;;;;;;;-3.50;70.29;102498.88;4983575;28;20387;-78
2022/03/11 03:08:37;;;;;;;;;;;;;;;-3.47;69.77;102487.84;5002833;28;19926;-78
2022/03/11 03:11:03;;;;;;;;;;;;;;;-3.45;70.39;102478.69;4983010;28;19932;-79
2022/03/11 03:13:28;;;;;;;;;;;;;;;-3.45;69.99;102472.47;4977451;28;19930;-78
2022/03/11 03:15:54;;;;;;;;;;;;;;;-3.47;69.75;102469.06;4980005;28;19926;-78
2022/03/11 03:18:19;;;;;;;;;;;;;;;-3.51;70.73;102471.19;4983846;28;19926;-78
2022/03/11 03:20:45;;;;;;;;;;;;;;;-3.50;70.80;102475.56;4988040;28;19936;-78
2022/03/11 03:23:10;;;;;;;;;;;;;;;-3.49;70.81;102455.78;4985197;28;19932;-79
2022/03/11 03:25:35;;;;;;;;;;;;;;;-3.48;70.15;102459.31;4987199;28;19926;-78
2022/03/11 03:28:01;;;;;;;;;;;;;;;-3.46;70.85;102455.53;4995489;28;19933;-78
2022/03/11 03:30:26;;;;;;;;;;;;;;;-3.43;71.33;102454.38;4987672;28;19957;-78
2022/03/11 03:32:52;;;;;;;;;;;;;;;-3.40;70.75;102456.75;4986253;28;19985;-79
2022/03/11 03:35:17;;;;;;;;;;;;;;;-3.37;70.83;102453.78;4983689;28;19970;-78
2022/03/11 03:37:43;;;;;;;;;;;;;;;-3.35;70.87;102449.97;4985092;28;19930;-79
2022/03/11 03:40:09;;;;;;;;;;;;;;;-3.37;71.83;102453.78;4981544;28;19930;-79
2022/03/11 03:42:34;;;;;;;;;;;;;;;-3.28;71.54;102452.94;4979689;28;19937;-79
2022/03/11 03:45:00;;;;;;;;;;;;;;;-3.26;71.06;102459.00;4985131;28;19930;-79
2022/03/11 03:47:25;;;;;;;;;;;;;;;-3.24;71.54;102464.22;4983248;28;20026;-78
2022/03/11 03:49:51;;;;;;;;;;;;;;;-3.24;70.97;102450.78;4983609;28;20016;-77
2022/03/11 03:52:16;;;;;;;;;;;;;;;-3.24;71.05;102448.94;4982284;28;19926;-79
2022/03/11 03:54:42;;;;;;;;;;;;;;;-3.22;71.53;102452.34;4985475;28;20029;-79
2022/03/11 03:57:07;;;;;;;;;;;;;;;-3.25;72.21;102447.25;4982666;28;19933;-78
2022/03/11 03:59:33;;;;;;;;;;;;;;;-3.24;72.52;102440.06;4980795;28;20013;-78
2022/03/11 04:01:59;;;;;;;;;;;;;;;-3.20;72.87;102433.38;4981753;28;19930;-79
2022/03/11 04:04:24;;;;;;;;;;;;;;;-3.15;72.26;102426.56;4981105;28;19925;-79
2022/03/11 04:06:50;;;;;;;;;;;;;;;-3.14;72.61;102425.59;4997966;28;20009;-79
2022/03/11 04:09:15;;;;;;;;;;;;;;;-3.12;73.26;102422.78;4983118;28;20016;-79
2022/03/11 04:11:41;;;;;;;;;;;;;;;-3.11;74.45;102427.16;4984273;28;19925;-79
2022/03/11 04:14:06;;;;;;;;;;;;;;;-3.07;73.88;102423.16;4984453;28;20024;-79
2022/03/11 04:16:32;;;;;;;;;;;;;;;-3.09;74.29;102419.78;4989030;28;20361;-79
2022/03/11 04:18:57;;;;;;;;;;;;;;;-3.07;75.25;102415.97;4978687;28;19926;-79
2022/03/11 04:21:23;;;;;;;;;;;;;;;-3.00;75.14;102429.63;4981431;28;20019;-78
2022/03/11 04:23:49;;;;;;;;;;;;;;;-2.97;75.01;102415.06;4993759;28;20413;-78
2022/03/11 04:26:14;;;;;;;;;;;;;;;-2.93;74.90;102398.50;4999763;28;19969;-78
2022/03/11 04:28:40;;;;;;;;;;;;;;;-2.86;75.40;102404.13;4979266;28;19926;-78
2022/03/11 04:31:12;;;;;;;;;;;;;;;-2.84;75.39;102402.13;4980972;28;20032;-78
2022/03/11 04:33:38;;;;;;;;;;;;;;;-2.80;75.75;102408.88;4980709;28;20409;-81
2022/03/11 04:36:04;;;;;;;;;;;;;;;-2.77;75.35;102398.69;4981339;28;20024;-78
2022/03/11 04:38:32;;;;;;;;;;;;;;;-2.73;75.49;102407.31;4981667;28;19930;-78
2022/03/11 04:40:58;;;;;;;;;;;;;;;-2.76;76.02;102405.75;4983406;28;19926;-78
2022/03/11 04:43:24;;;;;;;;;;;;;;;-2.78;76.43;102406.88;4992797;28;19932;-78
2022/03/11 04:45:49;;;;;;;;;;;;;;;-2.79;76.49;102397.13;4984415;28;19930;-78
2022/03/11 04:48:14;;;;;;;;;;;;;;;-2.76;76.79;102399.56;4977332;28;19926;-78
2022/03/11 04:50:40;;;;;;;;;;;;;;;-2.74;76.29;102392.19;4982364;28;20407;-78
2022/03/11 04:53:05;;;;;;;;;;;;;;;-2.69;76.19;102391.72;4978705;28;19934;-78
2022/03/11 04:55:31;;;;;;;;;;;;;;;-2.63;76.61;102383.03;4979611;28;19925;-78
2022/03/11 04:57:56;;;;;;;;;;;;;;;-2.59;76.68;102384.44;4984425;28;19925;-78
2022/03/11 05:00:22;;;;;;;;;;;;;;;-2.55;75.99;102385.81;4980851;28;20273;-78
2022/03/11 05:02:47;;;;;;;;;;;;;;;-2.57;75.95;102385.13;4986972;28;20016;-78
2022/03/11 05:05:13;;;;;;;;;;;;;;;-2.52;76.36;102374.75;4995810;28;19933;-79
2022/03/11 05:07:39;;;;;;;;;;;;;;;-2.51;76.72;102373.78;4983120;28;19930;-77
2022/03/11 05:10:05;;;;;;;;;;;;;;;-2.51;76.38;102366.53;4978687;28;19933;-77
2022/03/11 05:12:31;;;;;;;;;;;;;;;-2.54;77.15;102377.59;4981745;28;19980;-77
2022/03/11 05:14:56;;;;;;;;;;;;;;;-2.55;77.32;102372.38;4970400;28;19934;-78
2022/03/11 05:17:22;;;;;;;;;;;;;;;-2.57;76.88;102377.06;4979205;28;20205;-78
2022/03/11 05:19:47;;;;;;;;;;;;;;;-2.55;77.25;102372.38;4981700;28;20149;-78
2022/03/11 05:22:13;;;;;;;;;;;;;;;-2.53;77.04;102371.22;4977689;28;19936;-78
2022/03/11 05:24:39;;;;;;;;;;;;;;;-2.49;77.12;102358.31;4983914;28;19976;-78
2022/03/11 05:27:05;;;;;;;;;;;;;;;-2.49;77.23;102348.41;4974525;28;19953;-78
2022/03/11 05:29:36;;;;;;;;;;;;;;;-2.47;77.63;102340.19;4965939;28;19926;-78
2022/03/11 05:32:02;;;;;;;;;;;;;;;-2.48;77.92;102349.25;4980703;28;19930;-80
2022/03/11 05:34:28;;;;;;;;;;;;;;;-2.46;77.79;102345.41;4986715;28;19932;-78
2022/03/11 05:36:53;;;;;;;;;;;;;;;-2.45;77.28;102347.09;4982646;28;19926;-78
2022/03/11 05:39:19;;;;;;;;;;;;;;;-2.44;78.08;102348.78;4989563;28;20486;-79
2022/03/11 05:41:46;;;;;;;;;;;;;;;-2.39;77.58;102348.34;4982523;28;19957;-81
2022/03/11 05:44:18;;;;;;;;;;;;;;;-2.34;77.41;102337.13;5003429;28;20377;-78
2022/03/11 05:46:47;;;;;;;;;;;;;;;-2.29;78.16;102342.88;4997625;28;19925;-78
2022/03/11 05:49:13;;;;;;;;;;;;;;;-2.29;77.74;102340.19;4977920;28;19957;-79
2022/03/11 05:51:38;;;;;;;;;;;;;;;-2.31;77.57;102339.50;4978703;28;20470;-79
2022/03/11 05:54:04;;;;;;;;;;;;;;;-2.29;77.83;102348.25;4971624;28;19926;-79
2022/03/11 05:56:29;;;;;;;;;;;;;;;-2.26;77.78;102354.16;4977264;28;19930;-79
2022/03/11 05:58:55;;;;;;;;;;;;;;;-2.20;77.62;102345.50;4976717;28;19965;-79
2022/03/11 06:01:21;;;;;;;;;;;;;;;-2.20;78.28;102345.50;4977541;28;19926;-78
2022/03/11 06:03:47;;;;;;;;;;;;;;;-2.19;77.94;102346.34;4987279;28;20416;-78
2022/03/11 06:06:14;;;;;;;;;;;;;;;-2.14;78.04;102347.56;4972008;28;20076;-78
2022/03/11 06:08:39;;;;;;;;;;;;;;;-2.07;78.24;102347.78;4986615;28;19980;-78
2022/03/11 06:11:05;;;;;;;;;;;;;;;-1.96;78.39;102354.75;4976427;28;19926;-79
2022/03/11 06:13:30;;;;;;;;;;;;;;;-1.98;78.07;102337.91;4973001;28;19926;-78
2022/03/11 06:15:56;;;;;;;;;;;;;;;-2.01;78.04;102330.16;4978458;28;19926;-80
2022/03/11 06:18:22;;;;;;;;;;;;;;;-1.99;78.32;102330.84;4979554;28;19930;-79
2022/03/11 06:20:48;;;;;;;;;;;;;;;-1.98;78.46;102327.16;4977495;28;20415;-80
2022/03/11 06:23:14;;;;;;;;;;;;;;;-2.00;78.63;102319.25;4976509;28;19965;-80
2022/03/11 06:25:39;;;;;;;;;;;;;;;-1.94;79.07;102315.06;4977114;28;19934;-79
2022/03/11 06:28:05;;;;;;;;;;;;;;;-1.93;78.68;102320.28;4974355;28;19926;-79
2022/03/11 06:30:30;;;;;;;;;;;;;;;-1.89;78.63;102313.63;4973965;28;19926;-79
2022/03/11 06:32:56;;;;;;;;;;;;;;;-1.82;79.51;102313.81;4992577;28;19930;-79
2022/03/11 06:35:21;;;;;;;;;;;;;;;-1.77;78.74;102329.47;4971991;28;19996;-79
2022/03/11 06:37:47;;;;;;;;;;;;;;;-1.73;79.33;102326.34;4986985;28;19932;-78
2022/03/11 06:40:13;;;;;;;;;;;;;;;-1.70;79.65;102328.69;4970804;28;19942;-78
2022/03/11 06:42:40;;;;;;;;;;;;;;;-1.67;79.80;102319.47;4977727;28;19929;-79
2022/03/11 06:45:06;;;;;;;;;;;;;;;-1.63;79.70;102308.19;4990177;28;20509;-79
2022/03/11 06:47:32;;;;;;;;;;;;;;;-1.61;79.56;102321.50;4985004;28;19930;-79
2022/03/11 06:49:57;;;;;;;;;;;;;;;-1.62;79.54;102323.34;4979757;28;19933;-79
2022/03/11 06:52:23;;;;;;;;;;;;;;;-1.60;79.40;102321.34;4992273;28;20451;-79
2022/03/11 06:54:48;;;;;;;;;;;;;;;-1.55;79.52;102319.03;4976156;28;19926;-79
2022/03/11 06:57:15;;;;;;;;;;;;;;;-1.48;79.78;102330.00;4974192;28;19954;-79
2022/03/11 06:59:42;;;;;;;;;;;;;;;-1.42;79.66;102325.81;4988520;28;20029;-79
2022/03/11 07:02:08;;;;;;;;;;;;;;;-1.42;79.82;102331.19;4975917;28;19933;-79
2022/03/11 07:04:34;;;;;;;;;;;;;;;-1.33;80.07;102330.22;4972972;28;19926;-79
2022/03/11 07:06:59;;;;;;;;;;;;;;;-1.31;79.83;102323.69;4972527;28;20480;-79
2022/03/11 07:09:25;;;;;;;;;;;;;;;-1.31;80.29;102320.13;4976646;28;20405;-80
2022/03/11 07:11:52;;;;;;;;;;;;;;;-1.29;80.46;102318.97;4971405;28;19926;-80
2022/03/11 07:14:18;;;;;;;;;;;;;;;-1.30;80.08;102316.44;4979370;28;19933;-80
2022/03/11 07:16:43;;;;;;;;;;;;;;;-1.32;80.08;102313.06;4975630;28;20301;-79
2022/03/11 07:19:08;;;;;;;;;;;;;;;-1.30;81.00;102316.44;4982845;28;19926;-80
2022/03/11 07:21:35;;;;;;;;;;;;;;;-1.26;80.72;102318.63;4976443;28;19926;-80
2022/03/11 07:24:00;;;;;;;;;;;;;;;-1.22;80.58;102303.84;4977981;28;20352;-79
2022/03/11 07:26:26;;;;;;;;;;;;;;;-1.19;80.59;102316.16;4977042;28;19957;-79
2022/03/11 07:28:51;;;;;;;;;;;;;;;-1.21;81.52;102315.47;4980424;28;19980;-79
2022/03/11 07:31:17;;;;;;;;;;;;;;;-1.22;81.47;102309.22;4982687;28;19933;-79
2022/03/11 07:33:42;;;;;;;;;;;;;;;-1.15;81.08;102304.03;4981732;28;19926;-79
2022/03/11 07:36:08;;;;;;;;;;;;;;;-1.14;81.92;102303.03;4978125;28;20427;-79
2022/03/11 07:38:33;;;;;;;;;;;;;;;-1.14;81.85;102304.88;4977584;28;19980;-79
2022/03/11 07:40:59;;;;;;;;;;;;;;;-1.11;81.44;102307.25;4983086;28;20396;-79
2022/03/11 07:43:25;;;;;;;;;;;;;;;-1.13;82.43;102302.03;4976198;28;19926;-79
2022/03/11 07:45:51;;;;;;;;;;;;;;;-1.13;82.43;102303.88;4991020;28;19970;-80
2022/03/11 07:48:16;;;;;;;;;;;;;;;-1.10;82.59;102304.38;4982051;28;20432;-80
2022/03/11 07:50:41;;;;;;;;;;;;;;;-1.06;82.55;102302.19;4980832;28;20418;-79
2022/03/11 07:53:07;;;;;;;;;;;;;;;-1.04;82.58;102298.38;4982239;28;20684;-79
2022/03/11 07:55:32;;;;;;;;;;;;;;;-1.00;82.80;102293.47;4982372;28;19976;-79
2022/03/11 07:57:58;;;;;;;;;;;;;;;-0.97;83.43;102295.84;4979177;28;19961;-79
2022/03/11 08:00:23;;;;;;;;;;;;;;;-0.98;83.39;102295.00;4981145;28;20387;-79
2022/03/11 08:02:49;;;;;;;;;;;;;;;-0.97;83.27;102277.81;4985581;28;20356;-80
2022/03/11 08:05:14;;;;;;;;;;;;;;;-0.92;83.32;102280.00;4971611;28;20356;-80
2022/03/11 08:07:43;;;;;;;;;;;;;;;-0.90;83.20;102286.06;4977015;28;20658;-79
2022/03/11 08:10:09;;;;;;;;;;;;;;;-0.89;83.72;102285.06;4986623;28;19926;-79
2022/03/11 08:12:36;;;;;;;;;;;;;;;-0.85;84.07;102285.59;4975151;28;19926;-79
2022/03/11 08:15:02;;;;;;;;;;;;;;;-0.83;83.95;102295.22;4995560;28;19965;-80
2022/03/11 08:17:28;;;;;;;;;;;;;;;-0.84;83.81;102288.13;4977468;28;19976;-79
2022/03/11 08:19:53;;;;;;;;;;;;;;;-0.80;84.07;102284.09;4980716;28;20408;-79
2022/03/11 08:22:23;;;;;;;;;;;;;;;-0.76;84.13;102284.59;5001492;28;19926;-79
2022/03/11 08:24:48;;;;;;;;;;;;;;;-0.76;84.52;102281.91;4987192;28;19926;-79
2022/03/11 08:27:15;;;;;;;;;;;;;;;-0.73;84.37;102289.66;4978081;28;19926;-79
2022/03/11 08:29:40;;;;;;;;;;;;;;;-0.72;84.24;102285.94;4983472;28;19992;-79
2022/03/11 08:32:07;;;;;;;;;;;;;;;-0.72;84.26;102275.16;5001697;28;19970;-79
2022/03/11 08:34:32;;;;;;;;;;;;;;;-0.68;84.35;102276.53;4984942;28;20017;-79
2022/03/11 08:36:58;;;;;;;;;;;;;;;-0.63;84.25;102279.56;4984395;28;19926;-79
2022/03/11 08:39:23;;;;;;;;;;;;;;;-0.62;84.75;102273.16;4977197;28;19933;-79
2022/03/11 08:41:49;;;;;;;;;;;;;;;-0.62;84.40;102268.59;4988007;28;19980;-79
2022/03/11 08:44:14;;;;;;;;;;;;;;;-0.65;85.13;102273.50;4974389;28;20388;-81
2022/03/11 08:46:40;;;;;;;;;;;;;;;-0.65;84.82;102262.72;4978670;28;20404;-80
2022/03/11 08:49:07;;;;;;;;;;;;;;;-0.65;85.06;102262.72;4984548;28;19929;-80
2022/03/11 08:51:33;;;;;;;;;;;;;;;-0.67;85.17;102253.94;4966614;28;20025;-80
2022/03/11 08:53:58;;;;;;;;;;;;;;;-0.68;85.28;102266.59;4982959;28;20032;-80
2022/03/11 08:56:23;;;;;;;;;;;;;;;-0.67;85.57;102262.03;4981106;28;20012;-78
2022/03/11 08:58:49;;;;;;;;;;;;;;;-0.69;85.66;102258.66;4985244;28;20470;-78
2022/03/11 09:01:15;;;;;;;;;;;;;;;-0.65;85.45;102255.47;4995748;28;19951;-77
2022/03/11 09:03:40;;;;;;;;;;;;;;;-0.66;86.16;102258.34;4975909;28;19926;-78
2022/03/11 09:06:06;;;;;;;;;;;;;;;-0.65;85.75;102251.94;4983267;28;19926;-78
2022/03/11 09:08:32;;;;;;;;;;;;;;;-0.64;86.12;102261.69;4987884;28;20380;-79
2022/03/11 09:10:57;;;;;;;;;;;;;;;-0.67;85.65;102256.66;4982115;28;19988;-78
2022/03/11 09:13:23;;;;;;;;;;;;;;;-0.67;86.01;102254.78;4983224;28;19932;-78
2022/03/11 09:15:48;;;;;;;;;;;;;;;-0.65;85.79;102251.94;4981635;28;19926;-78
2022/03/11 09:18:14;;;;;;;;;;;;;;;-0.65;85.96;102257.31;4979240;28;19932;-77
2022/03/11 09:20:40;;;;;;;;;;;;;;;-0.66;86.44;102248.41;4986497;28;19989;-78
2022/03/11 09:23:06;;;;;;;;;;;;;;;-0.65;86.40;102246.53;4981698;28;19926;-75
2022/03/11 09:25:32;;;;;;;;;;;;;;;-0.64;86.20;102246.38;4976151;28;19980;-78
2022/03/11 09:27:57;;;;;;;;;;;;;;;-0.59;86.55;102242.31;4979526;28;19926;-76
2022/03/11 09:30:23;;;;;;;;;;;;;;;-0.59;86.12;102237.75;4982737;28;19929;-75
2022/03/11 09:32:48;;;;;;;;;;;;;;;-0.55;86.40;102228.31;4981009;28;20016;-77
2022/03/11 09:35:15;;;;;;;;;;;;;;;-0.55;86.42;102239.09;4972168;28;20412;-75
2022/03/11 09:37:41;;;;;;;;;;;;;;;-0.54;86.32;102246.19;4976376;28;19930;-76
2022/03/11 09:40:07;;;;;;;;;;;;;;;-0.47;86.00;102239.13;4994681;28;20286;-77
2022/03/11 09:42:33;;;;;;;;;;;;;;;-0.48;86.57;102229.34;4980684;28;19925;-76
2022/03/11 09:44:58;;;;;;;;;;;;;;;-0.46;86.15;102239.97;4977163;28;19926;-77
2022/03/11 09:47:24;;;;;;;;;;;;;;;-0.47;86.56;102246.38;4980798;28;19926;-76
2022/03/11 09:49:50;;;;;;;;;;;;;;;-0.48;86.16;102240.13;4991634;28;19980;-79
2022/03/11 09:52:16;;;;;;;;;;;;;;;-0.49;86.48;102248.41;4999158;28;20021;-77
2022/03/11 09:54:41;;;;;;;;;;;;;;;-0.47;86.56;102239.13;4998345;28;19965;-80
2022/03/11 09:57:07;;;;;;;;;;;;;;;-0.43;86.50;102243.16;4980539;28;19976;-80
2022/03/11 09:59:32;;;;;;;;;;;;;;;-0.36;86.33;102248.69;4980594;28;19921;-80
2022/03/11 10:01:58;;;;;;;;;;;;;;;-0.35;86.28;102232.38;4981431;28;20020;-79
2022/03/11 10:04:23;;;;;;;;;;;;;;;-0.36;86.48;102240.59;4985960;28;20020;-80
2022/03/11 10:06:49;;;;;;;;;;;;;;;-0.31;86.04;102240.97;4995602;28;19926;-78
2022/03/11 10:09:17;;;;;;;;;;;;;;;-0.31;86.49;102249.91;4976976;28;19925;-79
2022/03/11 10:11:43;;;;;;;;;;;;;;;-0.34;86.42;102242.16;4981589;28;20403;-79
2022/03/11 10:14:09;;;;;;;;;;;;;;;-0.33;86.37;102251.09;4991140;28;19933;-78
2022/03/11 10:16:34;;;;;;;;;;;;;;;-0.36;86.05;102254.09;4981010;28;19933;-80
2022/03/11 10:19:04;;;;;;;;;;;;;;;-0.39;86.24;102254.44;4977549;28;20359;-79
2022/03/11 10:21:56;;;;;;;;;;;;;;;-0.35;86.42;102258.47;4998170;28;19952;-79
2022/03/11 10:24:22;;;;;;;;;;;;;;;-0.37;86.89;102245.16;4982531;28;19972;-80
2022/03/11 10:26:55;;;;;;;;;;;;;;;-0.41;87.09;102246.53;4978989;28;19972;-80
2022/03/11 10:29:31;;;;;;;;;;;;;;;-0.44;86.93;102233.38;4981411;28;19930;-80
2022/03/11 10:31:58;;;;;;;;;;;;;;;-0.45;87.08;102233.56;4992908;28;19926;-80
2022/03/11 10:34:31;;;;;;;;;;;;;;;-0.47;87.07;102246.38;4988652;28;19926;-79
2022/03/11 10:37:01;;;;;;;;;;;;;;;-0.44;87.01;102240.63;4990401;28;20381;-80
2022/03/11 10:39:36;;;;;;;;;;;;;;;-0.41;86.85;102234.88;4970913;28;20054;-82
2022/03/11 10:42:23;;;;;;;;;;;;;;;-0.42;87.08;102233.22;4973041;28;20825;-80
2022/03/11 10:44:58;;;;;;;;;;;;;;;-0.38;86.61;102235.38;4989975;28;19933;-80
2022/03/11 10:47:34;;;;;;;;;;;;;;;-0.33;86.78;102222.25;4990377;28;19930;-80
2022/03/11 10:50:01;;;;;;;;;;;;;;;-0.28;86.96;102220.91;4978684;28;19968;-80
2022/03/11 10:52:33;;;;;;;;;;;;;;;-0.24;86.99;102220.38;4983499;28;20454;-80
2022/03/11 10:55:18;;;;;;;;;;;;;;;-0.20;86.50;102226.25;4976923;28;20339;-80
2022/03/11 10:57:44;;;;;;;;;;;;;;;-0.21;86.27;102228.13;4986934;28;20045;-80
2022/03/11 11:00:16;;;;;;;;;;;;;;;-0.19;86.33;102233.34;4991560;28;19934;-80
2022/03/11 11:02:42;;;;;;;;;;;;;;;-0.17;86.19;102231.34;4978026;28;19922;-80
2022/03/11 11:05:09;;;;;;;;;;;;;;;-0.17;86.14;102237.56;4990740;28;20000;-81
2022/03/11 11:08:03;;;;;;;;;;;;;;;-0.15;85.76;102237.41;4918829;29;19934;-81
2022/03/11 11:10:29;;;;;;;;;;;;;;;-0.18;86.25;102237.72;4908174;29;19957;-81
2022/03/11 11:12:55;;;;;;;;;;;;;;;-0.18;85.97;102229.63;4906639;29;19927;-81
2022/03/11 11:15:21;;;;;;;;;;;;;;;-0.17;85.89;102217.84;4919563;29;20069;-81
2022/03/11 11:17:47;;;;;;;;;;;;;;;-0.15;85.26;102213.97;4908741;29;19931;-80
2022/03/11 11:20:18;;;;;;;;;;;;;;;-0.13;85.57;102211.09;4922433;29;19967;-80
2022/03/11 11:22:44;;;;;;;;;;;;;;;-0.16;85.71;102211.44;4901887;29;19927;-81
2022/03/11 11:25:10;;;;;;;;;;;;;;;-0.11;85.52;102207.19;4906241;29;20079;-81
2022/03/11 11:27:35;;;;;;;;;;;;;;;-0.11;85.57;102193.72;4908748;29;20018;-81
2022/03/11 11:30:01;;;;;;;;;;;;;;;-0.11;85.42;102203.66;4909920;29;20318;-80
2022/03/11 11:32:27;;;;;;;;;;;;;;;-0.08;85.43;102187.13;4892680;29;21834;-81
2022/03/11 11:34:52;;;;;;;;;;;;;;;-0.05;85.14;102184.06;4895523;29;19942;-80
2022/03/11 11:37:39;;;;;;;;;;;;;;;-0.08;85.38;102166.38;4906481;29;20394;-81
2022/03/11 11:40:24;;;;;;;;;;;;;;;-0.10;85.08;102164.88;4900887;29;20433;-80
2022/03/11 11:43:09;;;;;;;;;;;;;;;-0.10;85.15;102167.56;4912044;29;19927;-80
2022/03/11 11:45:41;;;;;;;;;;;;;;;-0.13;85.38;102157.13;4964421;28;19922;-81
2022/03/11 11:48:26;;;;;;;;;;;;;;;-0.16;85.60;102155.63;4981074;28;19937;-81
2022/03/11 11:50:51;;;;;;;;;;;;;;;-0.14;85.01;102159.00;4986125;28;19988;-82
2022/03/11 11:53:30;;;;;;;;;;;;;;;-0.12;85.20;102156.13;4978498;28;20777;-82
2022/03/11 11:55:56;;;;;;;;;;;;;;;-0.10;85.50;102157.63;4983674;28;19926;-82
2022/03/11 11:58:22;;;;;;;;;;;;;;;-0.09;85.17;102158.47;4993626;28;20028;-82
2022/03/11 12:00:53;;;;;;;;;;;;;;;-0.05;85.30;102151.69;4993114;28;20417;-81
2022/03/11 12:03:19;;;;;;;;;;;;;;;-0.08;85.45;102154.75;4983766;28;19932;-82
2022/03/11 12:05:45;;;;;;;;;;;;;;;-0.13;85.36;102147.19;4980080;28;20012;-81
2022/03/11 12:08:31;;;;;;;;;;;;;;;-0.17;85.58;102145.00;4982294;28;19929;-81
2022/03/11 12:10:57;;;;;;;;;;;;;;;-0.17;85.18;102147.72;4983713;28;19925;-81
2022/03/11 12:13:32;;;;;;;;;;;;;;;-0.09;85.35;102150.38;4997723;28;19972;-83
2022/03/11 12:15:58;;;;;;;;;;;;;;;-0.09;84.76;102145.81;4978781;28;19921;-80
2022/03/11 12:18:38;;;;;;;;;;;;;;;-0.09;85.46;102139.56;4998537;28;19932;-82
2022/03/11 12:21:05;;;;;;;;;;;;;;;-0.06;85.38;102141.91;4982427;28;19936;-82
2022/03/11 12:23:32;;;;;;;;;;;;;;;-0.07;84.90;102137.53;4977140;28;19973;-81
2022/03/11 12:26:04;;;;;;;;;;;;;;;-0.09;85.05;102132.31;4980734;28;19972;-81
2022/03/11 12:28:34;;;;;;;;;;;;;;;-0.14;85.53;102129.31;4982525;28;19926;-81
2022/03/11 12:31:04;;;;;;;;;;;;;;;-0.09;85.16;102120.69;4983016;28;19934;-81
2022/03/11 12:33:29;;;;;;;;;;;;;;;-0.08;85.12;102125.06;4981041;28;19926;-81